createdAt,value
2022-10-31T05:03:19.306Z,7.82
2022-10-31T05:05:46.586Z,7.82
2022-10-31T05:08:13.800Z,8.00
2022-10-31T05:10:41.027Z,7.72
2022-10-31T05:13:08.637Z,7.72
2022-10-31T05:15:35.944Z,7.00
2022-10-31T05:18:03.707Z,6.88
2022-10-31T05:20:31.773Z,8.00
2022-10-31T05:22:59.664Z,8.23
2022-10-31T05:25:28.380Z,7.05
2022-10-31T05:27:56.178Z,7.60
2022-10-31T05:30:25.092Z,7.82
2022-10-31T05:32:52.958Z,6.43
2022-10-31T05:35:24.591Z,7.20
2022-10-31T05:37:51.876Z,6.35
2022-10-31T05:40:20.137Z,7.07
2022-10-31T05:42:47.798Z,5.97
2022-10-31T05:45:16.196Z,5.90
2022-10-31T05:47:43.535Z,5.60
2022-10-31T05:50:11.193Z,5.68
2022-10-31T05:52:38.584Z,5.65
2022-10-31T05:55:05.946Z,5.93
2022-10-31T05:57:34.486Z,5.70
2022-10-31T06:00:01.781Z,6.90
2022-10-31T06:02:32.697Z,5.60
2022-10-31T06:04:59.937Z,6.10
2022-10-31T06:07:34.303Z,5.85
2022-10-31T06:12:30.756Z,5.95
2022-10-31T06:14:58.562Z,5.35
2022-10-31T06:17:26.044Z,6.70
2022-10-31T06:19:53.231Z,6.28
2022-10-31T06:22:20.447Z,5.65
2022-10-31T06:24:47.646Z,5.32
2022-10-31T06:27:14.942Z,7.43
2022-10-31T06:29:42.200Z,7.78
2022-10-31T06:32:11.919Z,6.80
2022-10-31T06:34:39.673Z,7.20
2022-10-31T06:37:10.447Z,7.78
2022-10-31T06:39:37.772Z,7.00
2022-10-31T06:42:05.959Z,7.32
2022-10-31T06:44:33.519Z,8.05
2022-10-31T06:47:01.503Z,6.60
2022-10-31T06:49:28.819Z,8.02
2022-10-31T06:52:11.482Z,8.05
2022-10-31T06:54:38.705Z,8.55
2022-10-31T06:57:06.008Z,9.85
2022-10-31T06:59:33.709Z,12.70
2022-10-31T07:02:01.534Z,11.68
2022-10-31T07:04:28.921Z,9.75
2022-10-31T07:06:56.142Z,13.25
2022-10-31T07:09:23.393Z,9.73
2022-10-31T07:11:53.502Z,10.57
2022-10-31T07:14:20.737Z,11.45
2022-10-31T07:16:52.000Z,10.00
2022-10-31T07:19:19.395Z,10.10
2022-10-31T07:21:46.687Z,8.98
2022-10-31T07:24:13.914Z,8.30
2022-10-31T07:26:41.389Z,8.57
2022-10-31T07:29:08.623Z,9.00
2022-10-31T07:31:35.892Z,9.60
2022-10-31T07:34:03.220Z,7.72
2022-10-31T07:36:30.434Z,8.90
2022-10-31T07:38:59.469Z,8.90
2022-10-31T07:41:27.440Z,9.30
2022-10-31T07:43:54.696Z,10.18
2022-10-31T07:46:23.358Z,8.35
2022-10-31T07:48:50.612Z,10.15
2022-10-31T07:51:17.858Z,9.85
2022-10-31T07:53:45.097Z,9.63
2022-10-31T07:56:12.344Z,10.70
2022-10-31T07:58:39.552Z,13.25
2022-10-31T08:01:07.067Z,10.85
2022-10-31T08:03:34.457Z,11.20
2022-10-31T08:06:01.740Z,17.13
2022-10-31T08:08:32.218Z,12.80
2022-10-31T08:11:02.136Z,13.15
2022-10-31T08:13:30.254Z,12.93
2022-10-31T08:16:04.468Z,15.88
2022-10-31T08:18:32.815Z,14.02
2022-10-31T08:21:00.307Z,14.65
2022-10-31T08:23:27.685Z,14.25
2022-10-31T08:25:57.710Z,13.35
2022-10-31T08:28:25.050Z,13.82
2022-10-31T08:30:52.352Z,17.60
2022-10-31T08:33:20.266Z,18.00
2022-10-31T08:35:48.647Z,21.55
2022-10-31T08:38:15.944Z,19.67
2022-10-31T08:40:43.230Z,28.58
2022-10-31T08:43:14.973Z,21.25
2022-10-31T08:45:42.637Z,24.45
2022-10-31T08:48:14.246Z,26.58
2022-10-31T08:50:42.176Z,24.63
2022-10-31T08:53:12.287Z,23.45
2022-10-31T08:55:40.002Z,29.98
2022-10-31T08:58:08.528Z,27.38
2022-10-31T09:00:36.459Z,27.67
2022-10-31T09:03:05.073Z,25.70
2022-10-31T09:05:32.792Z,26.88
2022-10-31T09:08:01.105Z,28.30
2022-10-31T09:10:29.346Z,25.75
2022-10-31T09:13:00.416Z,31.80
2022-10-31T09:15:28.214Z,29.58
2022-10-31T09:17:55.969Z,28.23
2022-10-31T09:20:23.585Z,30.70
2022-10-31T09:22:57.110Z,34.40
2022-10-31T09:25:24.359Z,24.70
2022-10-31T09:27:51.601Z,31.35
2022-10-31T09:30:19.085Z,19.98
2022-10-31T09:32:46.360Z,28.45
2022-10-31T09:35:13.689Z,34.05
2022-10-31T09:37:42.193Z,37.22
2022-10-31T09:40:09.741Z,23.80
2022-10-31T09:42:43.914Z,26.50
2022-10-31T09:45:20.147Z,25.23
2022-10-31T09:47:56.570Z,26.95
2022-10-31T09:50:27.290Z,28.33
2022-10-31T09:53:14.812Z,25.55
2022-10-31T09:55:43.887Z,27.05
2022-10-31T09:58:22.378Z,36.35
2022-10-31T10:00:50.037Z,29.67
2022-10-31T10:03:26.582Z,26.83
2022-10-31T10:06:00.889Z,23.42
2022-10-31T10:11:16.044Z,27.85
2022-10-31T10:13:43.232Z,24.17
2022-10-31T10:16:21.613Z,32.05
2022-10-31T10:18:51.971Z,26.48
2022-10-31T10:21:19.231Z,29.05
2022-10-31T10:24:01.994Z,27.00
2022-10-31T10:26:37.036Z,25.38
2022-10-31T10:29:18.633Z,23.90
2022-10-31T10:31:47.126Z,25.58
2022-10-31T10:34:20.565Z,25.35
2022-10-31T10:36:59.878Z,24.17
2022-10-31T10:39:29.537Z,22.70
2022-10-31T10:42:16.413Z,25.42
2022-10-31T10:45:06.440Z,26.15
2022-10-31T10:47:44.555Z,24.85
2022-10-31T10:50:14.826Z,23.83
2022-10-31T10:53:09.215Z,25.77
2022-10-31T10:55:47.619Z,23.92
2022-10-31T10:58:15.073Z,23.58
2022-10-31T11:00:42.358Z,23.08
2022-10-31T11:03:10.052Z,21.63
2022-10-31T11:05:46.756Z,25.42
2022-10-31T11:08:27.493Z,26.08
2022-10-31T11:11:03.377Z,25.60
2022-10-31T11:13:31.441Z,24.58
2022-10-31T11:16:03.700Z,24.33
2022-10-31T11:18:32.405Z,23.65
2022-10-31T11:21:01.251Z,26.73
2022-10-31T11:23:29.897Z,24.73
2022-10-31T11:25:58.567Z,23.33
2022-10-31T11:28:26.417Z,23.55
2022-10-31T11:30:58.535Z,24.70
2022-10-31T11:33:31.381Z,23.70
2022-10-31T11:35:59.373Z,22.42
2022-10-31T11:38:31.922Z,22.77
2022-10-31T11:41:08.177Z,21.85
2022-10-31T11:43:35.530Z,22.25
2022-10-31T11:46:10.297Z,23.58
2022-10-31T11:48:37.808Z,21.35
2022-10-31T11:51:06.138Z,22.92
2022-10-31T11:53:35.460Z,22.45
2022-10-31T11:56:05.277Z,22.63
2022-10-31T11:58:32.719Z,22.38
2022-10-31T12:01:00.100Z,22.77
2022-10-31T12:03:36.389Z,23.80
2022-10-31T12:06:05.728Z,23.50
2022-10-31T12:08:35.721Z,23.92
2022-10-31T12:11:09.581Z,23.10
2022-10-31T12:13:42.077Z,22.92
2022-10-31T12:16:22.031Z,23.25
2022-10-31T12:18:54.649Z,22.92
2022-10-31T12:21:21.924Z,23.50
2022-10-31T12:23:49.138Z,22.98
2022-10-31T12:26:19.582Z,23.30
2022-10-31T12:28:55.471Z,21.50
2022-10-31T12:31:25.974Z,22.65
2022-10-31T12:33:59.473Z,23.15
2022-10-31T12:36:26.832Z,22.87
2022-10-31T12:38:57.237Z,22.25
2022-10-31T12:41:30.652Z,21.77
2022-10-31T12:43:57.977Z,21.87
2022-10-31T12:46:40.462Z,21.08
2022-10-31T12:49:19.216Z,20.92
2022-10-31T12:52:01.826Z,21.60
2022-10-31T12:54:48.140Z,22.08
2022-10-31T12:57:21.994Z,22.08
2022-10-31T13:00:04.107Z,21.98
2022-10-31T13:02:31.356Z,21.65
2022-10-31T13:04:58.739Z,23.50
2022-10-31T13:07:36.686Z,23.88
2022-10-31T13:10:24.192Z,24.95
2022-10-31T13:12:57.501Z,23.88
2022-10-31T13:15:34.629Z,23.97
2022-10-31T13:18:05.284Z,24.25
2022-10-31T13:20:34.694Z,26.15
2022-10-31T13:23:44.633Z,26.30
2022-10-31T13:26:11.242Z,25.58
2022-10-31T13:28:42.663Z,25.30
2022-10-31T13:31:10.579Z,25.23
2022-10-31T13:33:49.039Z,23.83
2022-10-31T13:36:16.242Z,23.42
2022-10-31T13:39:13.116Z,24.02
2022-10-31T13:41:52.782Z,24.52
2022-10-31T13:44:27.347Z,23.60
2022-10-31T13:46:55.560Z,25.20
2022-10-31T13:49:25.941Z,25.45
2022-10-31T13:51:55.932Z,25.58
2022-10-31T13:54:34.423Z,24.05
2022-10-31T13:57:01.878Z,23.83
2022-10-31T13:59:29.703Z,25.13
2022-10-31T14:01:58.181Z,24.67
2022-10-31T14:04:33.765Z,24.85
2022-10-31T14:07:07.143Z,24.75
2022-10-31T14:09:56.077Z,24.98
2022-10-31T14:12:32.482Z,26.10
2022-10-31T14:15:04.272Z,24.50
2022-10-31T14:17:35.675Z,26.95
2022-10-31T14:20:12.078Z,26.20
2022-10-31T14:22:42.758Z,26.50
2022-10-31T14:25:29.065Z,27.50
2022-10-31T14:27:56.451Z,26.92
2022-10-31T14:30:25.468Z,29.45
2022-10-31T14:32:54.213Z,37.28
2022-10-31T14:35:22.343Z,33.03
2022-10-31T14:37:52.813Z,40.60
2022-10-31T14:40:29.503Z,39.53
2022-10-31T14:43:15.463Z,34.15
2022-10-31T14:45:42.861Z,30.60
2022-10-31T14:48:28.967Z,30.73
2022-10-31T14:50:58.377Z,33.63
2022-10-31T14:53:28.420Z,33.20
2022-10-31T14:55:56.889Z,31.55
2022-10-31T14:58:30.222Z,33.85
2022-10-31T15:00:58.676Z,30.80
2022-10-31T15:03:36.864Z,32.85
2022-10-31T15:06:07.202Z,40.00
2022-10-31T15:08:34.505Z,35.22
2022-10-31T15:11:05.036Z,33.80
2022-10-31T15:13:32.453Z,49.90
2022-10-31T15:16:00.337Z,38.33
2022-10-31T15:18:29.850Z,41.65
2022-10-31T15:20:58.523Z,45.45
2022-10-31T15:23:30.258Z,103.63
2022-10-31T15:26:02.141Z,47.05
2022-10-31T15:28:29.967Z,41.05
2022-10-31T15:30:57.981Z,34.38
2022-10-31T15:33:46.932Z,39.63
2022-10-31T15:36:37.299Z,34.10
2022-10-31T15:39:06.129Z,32.25
2022-10-31T15:41:59.732Z,50.97
2022-10-31T15:44:31.777Z,34.58
2022-10-31T15:47:03.239Z,47.40
2022-10-31T15:49:30.570Z,39.72
2022-10-31T15:52:01.058Z,45.40
2022-10-31T15:54:28.475Z,40.97
2022-10-31T15:56:55.810Z,38.72
2022-10-31T15:59:26.806Z,61.10
2022-10-31T16:02:02.825Z,32.80
2022-10-31T16:04:30.928Z,32.95
2022-10-31T16:07:17.490Z,27.75
2022-10-31T16:09:56.993Z,43.17
2022-10-31T16:12:25.405Z,36.08
2022-10-31T16:14:53.590Z,35.33
2022-10-31T16:17:22.793Z,31.48
2022-10-31T16:19:49.989Z,31.40
2022-10-31T16:22:21.900Z,27.48
2022-10-31T16:24:57.637Z,25.77
2022-10-31T16:27:29.442Z,24.95
2022-10-31T16:29:57.974Z,22.80
2022-10-31T16:32:28.462Z,25.58
2022-10-31T16:35:01.323Z,26.33
2022-10-31T16:37:28.625Z,24.02
2022-10-31T16:39:55.919Z,26.48
2022-10-31T16:42:23.222Z,40.65
2022-10-31T16:44:50.606Z,23.10
2022-10-31T16:47:19.695Z,26.02
2022-10-31T16:49:50.383Z,26.35
2022-10-31T16:52:18.184Z,22.50
2022-10-31T16:54:45.520Z,25.05
2022-10-31T16:57:15.261Z,26.08
2022-10-31T16:59:42.846Z,25.30
2022-10-31T17:02:16.241Z,25.10
2022-10-31T17:04:43.896Z,22.83
2022-10-31T17:07:11.213Z,43.58
2022-10-31T17:09:38.935Z,27.25
2022-10-31T17:12:08.090Z,27.48
2022-10-31T17:14:35.600Z,40.08
2022-10-31T17:17:02.853Z,44.92
2022-10-31T17:19:30.139Z,44.75
2022-10-31T17:21:57.504Z,24.85
2022-10-31T17:24:24.742Z,23.40
2022-10-31T17:26:51.986Z,29.23
2022-10-31T17:29:19.183Z,31.20
2022-10-31T17:31:46.437Z,26.00
2022-10-31T17:34:13.627Z,23.10
2022-10-31T17:36:40.902Z,23.20
2022-10-31T17:39:09.723Z,22.35
2022-10-31T17:41:37.062Z,25.73
2022-10-31T17:44:04.398Z,40.15
2022-10-31T17:46:31.615Z,25.00
2022-10-31T17:49:00.951Z,32.72
2022-10-31T17:51:28.229Z,44.08
2022-10-31T17:53:56.228Z,28.30
2022-10-31T17:56:23.435Z,29.70
2022-10-31T17:58:50.806Z,34.03
2022-10-31T18:01:19.408Z,39.15
2022-10-31T18:03:46.742Z,51.45
2022-10-31T18:06:16.787Z,27.52
2022-10-31T18:08:44.620Z,25.05
2022-10-31T18:11:14.833Z,28.60
2022-10-31T18:13:43.053Z,28.13
2022-10-31T18:16:11.301Z,27.83
2022-10-31T18:18:38.687Z,23.85
2022-10-31T18:21:06.284Z,26.73
2022-10-31T18:23:33.586Z,27.50
2022-10-31T18:26:00.851Z,23.15
2022-10-31T18:28:28.150Z,29.58
2022-10-31T18:30:56.155Z,73.80
2022-10-31T18:33:23.498Z,56.58
2022-10-31T18:35:50.822Z,34.30
2022-10-31T18:38:18.040Z,32.25
2022-10-31T18:40:45.329Z,27.65
2022-10-31T18:43:12.620Z,31.10
2022-10-31T18:45:46.921Z,45.95
2022-10-31T18:48:17.473Z,19.80
2022-10-31T18:50:44.827Z,44.65
2022-10-31T18:53:12.347Z,25.08
2022-10-31T18:55:44.009Z,44.22
2022-10-31T18:58:14.874Z,41.05
2022-10-31T19:00:42.225Z,43.70
2022-10-31T19:03:09.740Z,47.50
2022-10-31T19:05:37.385Z,47.03
2022-10-31T19:08:05.159Z,28.13
2022-10-31T19:10:34.727Z,27.15
2022-10-31T19:13:02.186Z,28.60
2022-10-31T19:15:29.576Z,30.92
2022-10-31T19:17:56.872Z,23.45
2022-10-31T19:20:24.138Z,25.63
2022-10-31T19:22:51.407Z,24.55
2022-10-31T19:25:18.675Z,23.55
2022-10-31T19:27:46.030Z,22.20
2022-10-31T19:30:13.617Z,22.35
2022-10-31T19:32:40.908Z,20.63
2022-10-31T19:35:09.490Z,18.85
2022-10-31T19:37:37.130Z,18.20
2022-10-31T19:40:05.421Z,24.20
2022-10-31T19:42:33.385Z,47.10
2022-10-31T19:45:00.907Z,24.10
2022-10-31T19:47:28.345Z,33.55
2022-10-31T19:49:55.675Z,34.15
2022-10-31T19:52:22.977Z,22.02
2022-10-31T19:54:50.258Z,18.70
2022-10-31T19:57:18.650Z,30.95
2022-10-31T19:59:53.999Z,17.65
2022-10-31T20:02:21.311Z,20.30
2022-10-31T20:04:48.557Z,20.42
2022-10-31T20:07:15.804Z,29.23
2022-10-31T20:09:45.389Z,30.48
2022-10-31T20:12:12.724Z,15.68
2022-10-31T20:14:40.069Z,15.95
2022-10-31T20:17:08.470Z,18.00
2022-10-31T20:19:35.953Z,26.90
2022-10-31T20:22:03.275Z,22.38
2022-10-31T20:24:32.567Z,22.10
2022-10-31T20:26:59.880Z,20.25
2022-10-31T20:29:27.127Z,21.92
2022-10-31T20:31:54.488Z,20.90
2022-10-31T20:34:21.927Z,21.90
2022-10-31T20:36:49.346Z,20.25
2022-10-31T20:39:16.658Z,17.45
2022-10-31T20:41:43.971Z,17.50
2022-10-31T20:44:11.239Z,18.45
2022-10-31T20:46:38.713Z,19.17
2022-10-31T20:49:05.950Z,18.70
2022-10-31T20:51:33.292Z,16.73
2022-10-31T20:54:00.973Z,22.80
2022-10-31T20:56:28.934Z,17.35
2022-10-31T20:58:56.772Z,18.67
2022-10-31T21:01:25.527Z,17.98
2022-10-31T21:03:53.861Z,15.20
2022-10-31T21:06:23.093Z,15.20
2022-10-31T21:08:50.502Z,15.18
2022-10-31T21:11:20.497Z,13.45
2022-10-31T21:13:48.398Z,12.45
2022-10-31T21:16:17.320Z,13.18
2022-10-31T21:18:45.361Z,11.55
2022-10-31T21:21:17.769Z,11.75
2022-10-31T21:23:45.153Z,12.50
2022-10-31T21:26:14.111Z,14.93
2022-10-31T21:28:41.551Z,12.98
2022-10-31T21:31:10.138Z,15.25
2022-10-31T21:33:37.614Z,13.23
2022-10-31T21:36:05.309Z,13.07
2022-10-31T21:38:32.896Z,11.07
2022-10-31T21:41:04.192Z,13.25
2022-10-31T21:43:31.950Z,12.32
2022-10-31T21:46:05.992Z,13.45
2022-10-31T21:48:34.168Z,19.42
2022-10-31T21:51:04.964Z,17.60
2022-10-31T21:53:51.370Z,12.38
2022-10-31T21:56:18.625Z,10.68
2022-10-31T21:58:45.997Z,10.27
2022-10-31T22:01:13.385Z,8.93
2022-10-31T22:03:41.694Z,9.48
2022-10-31T22:06:09.936Z,9.48
2022-10-31T22:08:37.530Z,12.23
2022-10-31T22:11:05.481Z,10.73
2022-10-31T22:13:36.458Z,12.15
2022-10-31T22:16:08.252Z,10.68
2022-10-31T22:18:35.901Z,10.85
2022-10-31T22:21:12.928Z,13.82
2022-10-31T22:23:40.256Z,12.98
2022-10-31T22:26:08.926Z,20.27
2022-10-31T22:28:36.728Z,19.52
2022-10-31T22:31:06.220Z,14.68
2022-10-31T22:33:34.402Z,20.75
2022-10-31T22:36:05.747Z,24.60
2022-10-31T22:38:40.421Z,13.30
2022-10-31T22:41:09.203Z,11.40
2022-10-31T22:43:36.601Z,10.48
2022-10-31T22:46:06.554Z,11.05
2022-10-31T22:48:36.963Z,11.85
2022-10-31T22:51:08.556Z,12.55
2022-10-31T22:53:36.768Z,10.93
2022-10-31T22:56:04.647Z,10.93
2022-10-31T22:58:32.739Z,10.65
2022-10-31T23:01:00.727Z,11.80
2022-10-31T23:03:28.139Z,15.80
2022-10-31T23:05:59.479Z,20.60
2022-10-31T23:08:27.847Z,17.73
2022-10-31T23:10:55.200Z,23.73
2022-10-31T23:13:41.531Z,13.48
2022-10-31T23:16:09.833Z,14.68
2022-10-31T23:18:49.651Z,22.33
2022-10-31T23:21:44.274Z,17.45
2022-10-31T23:24:12.333Z,13.13
2022-10-31T23:26:59.197Z,11.35
2022-10-31T23:29:26.728Z,11.40
2022-10-31T23:31:54.760Z,10.68
2022-10-31T23:34:22.965Z,11.02
2022-10-31T23:36:50.711Z,13.95
2022-10-31T23:39:21.251Z,17.75
2022-10-31T23:41:51.981Z,18.20
2022-10-31T23:44:19.664Z,11.23
2022-10-31T23:46:46.967Z,12.57
2022-10-31T23:49:14.564Z,17.33
2022-10-31T23:51:41.992Z,27.65
2022-10-31T23:54:09.572Z,18.02
2022-10-31T23:56:37.274Z,20.05
2022-10-31T23:59:04.853Z,19.67
